createdAt,value
2018-01-07T00:01:13.245Z,101410.94
2018-01-07T00:03:41.538Z,101416.00
2018-01-07T00:06:09.829Z,101424.86
2018-01-07T00:08:38.143Z,101430.00
2018-01-07T00:11:06.721Z,101430.84
2018-01-07T00:13:35.117Z,101438.03
2018-01-07T00:16:03.509Z,101439.76
2018-01-07T00:18:32.014Z,101437.88
2018-01-07T00:21:00.387Z,101446.13
2018-01-07T00:23:28.859Z,101440.16
2018-01-07T00:25:57.762Z,101452.28
2018-01-07T00:28:26.393Z,101459.37
2018-01-07T00:30:54.904Z,101470.22
2018-01-07T00:33:23.164Z,101463.67
2018-01-07T00:35:51.454Z,101459.12
2018-01-07T00:38:19.920Z,101465.97
2018-01-07T00:40:48.329Z,101469.92
2018-01-07T00:43:16.654Z,101474.44
2018-01-07T00:45:44.936Z,101479.99
2018-01-07T00:48:13.253Z,101481.50
2018-01-07T00:50:41.536Z,101488.72
2018-01-07T00:53:09.802Z,101493.17
2018-01-07T00:55:38.069Z,101495.07
2018-01-07T00:58:06.479Z,101493.90
2018-01-07T01:00:34.801Z,101498.92
2018-01-07T01:03:03.100Z,101503.34
2018-01-07T01:05:31.382Z,101498.13
2018-01-07T01:07:59.653Z,101504.37
2018-01-07T01:10:27.946Z,101514.78
2018-01-07T01:12:56.590Z,101525.23
2018-01-07T01:15:24.940Z,101531.20
2018-01-07T01:17:53.249Z,101542.75
2018-01-07T01:20:21.525Z,101542.34
2018-01-07T01:22:49.901Z,101545.09
2018-01-07T01:25:18.196Z,101548.10
2018-01-07T01:27:46.473Z,101549.72
2018-01-07T01:30:14.832Z,101552.37
2018-01-07T01:32:43.081Z,101563.09
2018-01-07T01:35:11.373Z,101559.13
2018-01-07T01:37:39.776Z,101567.77
2018-01-07T01:40:08.082Z,101579.11
2018-01-07T01:42:36.517Z,101577.20
2018-01-07T01:45:05.080Z,101581.19
2018-01-07T01:47:33.393Z,101582.96
2018-01-07T01:50:01.632Z,101593.16
2018-01-07T01:52:29.964Z,101592.27
2018-01-07T01:54:58.300Z,101600.45
